Decoded Metar for CYRV (REVELSTOKE AIRPO in BC, CANADA) (IATA:YRV) | Meteo·Mobile Aviation Weather
aviador You're here:

CYRV Decoded Metar

REVELSTOKE AIRPO in BC, CANADA
Report Time2019-09-17 00:41:00
UTC Time2019-09-17 01:01:41
Flight Rules vfr VFR
Wind160° at 07 kt
W.Decomp.*RWY 12: 6.4 kt HW 2.8 kt RCW
Visibility9999 m
Phenomena:N/A
Clouds:Broken 065 Hf
Overcast 080 Hf
Expected CloudBase > 800 ft AGL from Temp-Dew spread
Ceiling6,500 ft
Temp14°C (ISA +2)
Dew Point12°C (88% RH)
AAT12.1°C
QNH1008 hPa
Density Alt2,041 ft
Elevation1,453 ft
Report Wrong Elevation
Raw Report
SPECI CYRV 170041Z AUTO 16007KT 9SM BKN065 OVC080 14/12 A2976 RMK SLP082
DENSITY ALT 1800FT=

Extra information for CYRV:More info

Metar Taf Metar & Taf Last 4 Metars F.Rules Stats Wind Profile Meteogram Temp Stats Airport Information Weather charts Add Link Nearby VenuesMetar ALERT Operation Metar Decoded Social comments